Time;durP1;ratioP1;P1;durP2;ratioP2;P2;SDS_P1;SDS_P2;PMS_P1;PMS_P2;Temp;Humidity;BMP_temperature;BMP_pressure;BME280_temperature;BME280_humidity;BME280_pressure;Samples;Min_cycle;Max_cycle;Signal;HPM_P1;HPM_P2
2023/03/27 00:03:24;;;;;;;5.07;2.15;;;;;;;19.62;50.09;95299.28;10332192;28;20042;-72
2023/03/27 00:08:46;;;;;;;3.58;2.00;;;;;;;19.61;50.10;95292.34;10319153;28;20042;-73
2023/03/27 00:14:05;;;;;;;4.40;2.17;;;;;;;19.61;50.10;95286.94;10331776;28;20042;-73
2023/03/27 00:19:25;;;;;;;5.45;2.13;;;;;;;19.59;50.09;95281.91;10318317;28;20104;-73
2023/03/27 00:24:45;;;;;;;5.55;1.85;;;;;;;19.59;50.15;95287.31;10331873;28;20046;-73
2023/03/27 00:30:05;;;;;;;3.47;1.80;;;;;;;19.60;50.14;95293.47;10305518;28;20054;-73
2023/03/27 00:35:27;;;;;;;4.10;2.30;;;;;;;19.58;49.90;95299.22;10317920;28;20053;-73
2023/03/27 00:40:48;;;;;;;5.22;2.05;;;;;;;19.58;49.97;95293.06;10331630;28;20573;-73
2023/03/27 00:46:32;;;;;;;4.45;2.00;;;;;;;19.56;50.07;95286.09;10334074;28;20100;-73
2023/03/27 00:51:52;;;;;;;3.50;1.88;;;;;;;19.56;49.94;95290.72;10339221;28;20057;-73
2023/03/27 00:57:15;;;;;;;3.10;1.80;;;;;;;19.55;49.83;95289.94;10339145;28;20047;-73
2023/03/27 01:02:35;;;;;;;5.78;1.95;;;;;;;19.55;49.87;95278.38;10325759;28;20093;-73
2023/03/27 01:07:56;;;;;;;4.85;2.10;;;;;;;19.53;49.93;95275.25;10324988;28;20510;-73
2023/03/27 01:13:55;;;;;;;4.43;1.92;;;;;;;19.52;49.87;95271.78;10312330;28;20049;-73
2023/03/27 01:19:45;;;;;;;2.83;1.70;;;;;;;19.52;49.72;95273.66;10324803;28;20099;-73
2023/03/27 01:25:27;;;;;;;3.83;1.60;;;;;;;19.51;49.77;95266.72;10324621;28;20050;-72
2023/03/27 01:30:53;;;;;;;3.78;1.92;;;;;;;19.51;49.76;95266.72;10324157;28;20061;-73
2023/03/27 01:36:13;;;;;;;3.70;1.77;;;;;;;19.49;49.72;95264.38;10324237;28;20053;-72
2023/03/27 01:41:54;;;;;;;3.00;1.70;;;;;;;19.48;49.69;95254.72;10337584;28;20488;-73
2023/03/27 01:47:38;;;;;;;4.10;1.70;;;;;;;19.49;49.65;95261.69;10337318;28;20100;-73
2023/03/27 01:53:09;;;;;;;2.25;1.45;;;;;;;19.47;49.68;95263.97;10351680;28;20042;-72
2023/03/27 01:58:32;;;;;;;4.07;1.80;;;;;;;19.45;49.67;95263.53;10322331;28;20076;-72
2023/03/27 02:03:56;;;;;;;2.22;1.40;;;;;;;19.45;49.56;95274.34;10309760;28;20097;-72
2023/03/27 02:09:21;;;;;;;3.55;1.70;;;;;;;19.45;49.74;95276.28;10336564;28;20039;-72
2023/03/27 02:14:47;;;;;;;3.63;1.70;;;;;;;19.43;49.70;95282.03;10322890;28;20042;-72
2023/03/27 02:20:11;;;;;;;2.58;1.58;;;;;;;19.42;49.51;95277.75;10322446;28;20080;-73
2023/03/27 02:25:33;;;;;;;2.22;1.45;;;;;;;19.41;49.61;95281.59;10336207;28;20049;-72
2023/03/27 02:30:53;;;;;;;2.72;1.52;;;;;;;19.41;49.71;95278.91;10308656;28;20042;-72
2023/03/27 02:36:45;;;;;;;3.40;1.63;;;;;;;19.41;49.61;95281.59;10335469;28;20399;-73
2023/03/27 02:42:19;;;;;;;3.25;1.58;;;;;;;19.39;49.62;95283.88;10278587;28;20062;-73
2023/03/27 02:47:57;;;;;;;2.80;1.60;;;;;;;19.39;49.52;95285.81;10334965;28;20053;-73
2023/03/27 02:53:20;;;;;;;1.77;1.40;;;;;;;19.38;49.46;95295.03;10334833;28;20081;-73
2023/03/27 02:58:56;;;;;;;2.03;1.45;;;;;;;19.37;49.48;95305.06;10320995;28;20042;-73
2023/03/27 03:04:28;;;;;;;2.30;1.40;;;;;;;19.35;49.46;95301.94;10334418;28;20043;-73
2023/03/27 03:10:02;;;;;;;2.42;1.50;;;;;;;19.35;49.32;95310.03;10322094;28;20046;-73
2023/03/27 03:15:24;;;;;;;2.88;1.35;;;;;;;19.34;49.51;95313.88;10320856;28;20049;-73
2023/03/27 03:20:44;;;;;;;2.70;1.35;;;;;;;19.33;49.43;95315.03;10320231;28;20120;-73
2023/03/27 03:26:05;;;;;;;2.80;1.48;;;;;;;19.32;49.48;95316.16;10331760;28;20046;-73
2023/03/27 03:31:42;;;;;;;2.22;1.40;;;;;;;19.31;49.38;95312.69;10321255;28;20384;-73
2023/03/27 03:37:01;;;;;;;2.47;1.50;;;;;;;19.31;49.40;95317.31;10334073;28;20042;-73
2023/03/27 03:42:23;;;;;;;2.40;1.33;;;;;;;19.29;49.31;95323.06;10306271;28;20046;-73
2023/03/27 03:47:45;;;;;;;2.13;1.30;;;;;;;19.29;49.36;95328.47;10306359;28;20049;-73
2023/03/27 03:53:05;;;;;;;1.90;1.30;;;;;;;19.28;49.34;95334.22;10319198;28;20038;-73
2023/03/27 03:58:24;;;;;;;3.95;1.48;;;;;;;19.28;49.42;95355.81;10332970;28;20046;-73
2023/03/27 04:03:44;;;;;;;1.88;1.30;;;;;;;19.26;49.37;95358.09;10332538;28;20038;-75
2023/03/27 04:09:04;;;;;;;2.35;1.40;;;;;;;19.26;49.36;95363.50;10319162;28;20431;-74
2023/03/27 04:14:47;;;;;;;2.08;1.40;;;;;;;19.26;49.82;95376.97;10321775;28;20058;-73
2023/03/27 04:20:27;;;;;;;1.90;1.30;;;;;;;19.25;50.09;95392.41;10299243;28;20054;-74
2023/03/27 04:25:48;;;;;;;1.73;1.30;;;;;;;19.24;49.87;95404.34;10317624;28;20046;-73
2023/03/27 04:31:14;;;;;;;1.98;1.17;;;;;;;19.25;50.24;95422.13;10318176;28;20419;-73
2023/03/27 04:36:54;;;;;;;1.65;1.20;;;;;;;19.26;50.09;95456.06;10334614;28;20046;-73
2023/03/27 04:42:16;;;;;;;4.47;1.15;;;;;;;19.26;49.97;95476.88;10305534;28;20487;-73
2023/03/27 04:47:37;;;;;;;2.03;1.15;;;;;;;19.25;50.36;95486.09;10317833;28;20054;-74
2023/03/27 04:52:59;;;;;;;1.75;1.17;;;;;;;19.26;50.18;95503.88;10331328;28;20100;-72
2023/03/27 04:58:24;;;;;;;2.42;1.10;;;;;;;19.25;50.06;95526.59;10318103;28;20053;-75
2023/03/27 05:03:47;;;;;;;4.22;1.15;;;;;;;19.25;50.17;95546.31;10317767;28;20097;-76
2023/03/27 05:09:33;;;;;;;2.60;1.20;;;;;;;19.26;50.06;95557.88;10297583;28;20058;-76
2023/03/27 05:14:53;;;;;;;4.68;1.40;;;;;;;19.26;50.03;95565.97;10330962;28;20054;-76
2023/03/27 05:20:27;;;;;;;6.72;2.30;;;;;;;19.28;50.04;95594.19;10319041;28;20066;-76
2023/03/27 05:25:47;;;;;;;5.80;2.00;;;;;;;19.30;50.20;95604.66;10313559;28;20050;-75
2023/03/27 05:31:09;;;;;;;5.13;1.73;;;;;;;19.31;50.10;95619.72;10317357;28;20097;-76
2023/03/27 05:36:41;;;;;;;6.50;2.22;;;;;;;19.32;50.07;95635.56;10312244;28;20049;-76
2023/03/27 05:42:02;;;;;;;6.55;2.20;;;;;;;19.35;50.17;95650.28;10324030;28;20069;-76
2023/03/27 05:47:21;;;;;;;6.22;1.90;;;;;;;19.36;50.01;95676.16;10352086;28;20054;-76
2023/03/27 05:52:46;;;;;;;6.47;2.13;;;;;;;19.40;49.96;95687.03;10310643;28;20438;-76
2023/03/27 05:58:08;;;;;;;5.18;1.88;;;;;;;19.41;49.90;95704.84;10323125;28;20053;-76
2023/03/27 06:03:29;;;;;;;4.70;2.08;;;;;;;19.44;49.92;95712.22;10323710;28;20042;-76
2023/03/27 06:08:52;;;;;;;5.82;2.10;;;;;;;19.46;49.90;95721.53;10323479;28;20049;-76
2023/03/27 06:14:12;;;;;;;5.35;1.90;;;;;;;19.50;49.71;95745.94;10322742;28;20406;-76
2023/03/27 06:19:49;;;;;;;5.60;2.17;;;;;;;19.51;49.60;95761.78;10324864;28;20125;-76
2023/03/27 06:25:09;;;;;;;6.63;2.30;;;;;;;19.54;49.64;95774.63;10322375;28;20487;-76
2023/03/27 06:30:29;;;;;;;5.50;2.58;;;;;;;19.56;49.57;95788.56;10308652;28;20562;-76
2023/03/27 06:36:11;;;;;;;7.18;2.30;;;;;;;19.60;49.62;95801.34;10338862;28;20046;-76
2023/03/27 06:41:34;;;;;;;5.82;1.95;;;;;;;19.62;49.47;95824.22;10322172;28;20042;-76
2023/03/27 06:46:54;;;;;;;5.57;2.17;;;;;;;19.65;49.38;95841.63;10321219;28;20046;-76
2023/03/27 06:52:36;;;;;;;4.80;1.75;;;;;;;19.69;49.50;95856.03;10325336;28;20076;-76
2023/03/27 06:58:13;;;;;;;4.78;1.90;;;;;;;19.72;49.46;95863.47;10323014;28;20494;-76
2023/03/27 07:03:32;;;;;;;5.30;2.10;;;;;;;19.74;49.22;95870.09;10335172;28;20479;-76
2023/03/27 07:08:52;;;;;;;6.57;1.95;;;;;;;19.78;49.46;95881.00;10334370;28;20046;-75
2023/03/27 07:14:12;;;;;;;3.42;1.80;;;;;;;19.81;49.34;95887.63;10320586;28;20054;-76
2023/03/27 07:19:31;;;;;;;5.45;2.17;;;;;;;19.84;49.27;95901.22;10333943;28;20446;-76
2023/03/27 07:25:03;;;;;;;4.18;1.65;;;;;;;19.87;49.01;95922.13;10321684;28;20050;-76
2023/03/27 07:30:29;;;;;;;4.93;1.90;;;;;;;19.91;49.10;95928.41;10294700;28;20046;-76
2023/03/27 07:35:49;;;;;;;4.60;1.90;;;;;;;19.94;49.34;95948.59;10319795;28;20415;-75
2023/03/27 07:41:30;;;;;;;4.43;1.75;;;;;;;19.98;49.08;95962.97;10335850;28;20054;-75
2023/03/27 07:46:51;;;;;;;5.35;1.73;;;;;;;20.02;48.84;95963.06;10333328;28;20073;-75
2023/03/27 07:52:11;;;;;;;2.53;1.40;;;;;;;20.05;49.14;95970.47;10319304;28;20038;-75
2023/03/27 07:57:47;;;;;;;3.55;1.48;;;;;;;20.11;48.08;95982.59;10331729;28;20057;-75
2023/03/27 08:03:10;;;;;;;2.78;1.52;;;;;;;20.13;48.00;95991.16;10305854;28;20038;-75
2023/03/27 08:08:35;;;;;;;2.38;1.50;;;;;;;20.15;47.87;96002.44;10319284;28;20050;-75
2023/03/27 08:13:57;;;;;;;2.88;1.48;;;;;;;20.19;47.83;96014.13;10318629;28;20042;-75
2023/03/27 08:19:17;;;;;;;2.72;1.60;;;;;;;20.22;47.71;96026.16;10331779;28;20515;-75
2023/03/27 08:24:41;;;;;;;3.42;1.55;;;;;;;20.25;47.65;96039.78;10331721;28;20039;-75
2023/03/27 08:30:05;;;;;;;3.15;1.27;;;;;;;20.29;47.77;96051.47;10306801;28;20062;-75
2023/03/27 08:35:29;;;;;;;2.75;1.40;;;;;;;20.33;47.81;96067.78;10331627;28;20038;-75
2023/03/27 08:40:52;;;;;;;1.77;1.20;;;;;;;20.37;47.41;96073.31;10317722;28;20049;-75
2023/03/27 08:46:47;;;;;;;2.65;1.38;;;;;;;20.40;47.56;96099.66;10320679;28;20100;-72
2023/03/27 08:52:15;;;;;;;2.15;1.10;;;;;;;20.30;43.53;96098.22;10331000;28;20046;-72
2023/03/27 08:57:36;;;;;;;1.92;1.10;;;;;;;20.36;45.89;96104.97;10316984;28;20092;-72
2023/03/27 09:03:15;;;;;;;3.28;1.58;;;;;;;20.43;46.06;96104.38;10318062;28;20038;-72
2023/03/27 09:09:05;;;;;;;2.67;1.13;;;;;;;20.48;45.95;96114.94;10321392;28;20053;-72
2023/03/27 09:14:30;;;;;;;2.75;1.27;;;;;;;20.50;45.92;96137.81;10337951;28;20046;-72
2023/03/27 09:20:18;;;;;;;2.83;1.38;;;;;;;20.53;46.10;96133.63;10324185;28;20046;-72
2023/03/27 09:25:45;;;;;;;2.45;1.30;;;;;;;20.55;46.15;96156.50;10309890;28;20503;-73
2023/03/27 09:31:29;;;;;;;2.28;1.02;;;;;;;20.58;46.34;96160.44;10325570;28;20042;-73
2023/03/27 09:36:50;;;;;;;1.50;1.00;;;;;;;20.61;46.30;96159.00;10310263;28;20042;-73
2023/03/27 09:42:16;;;;;;;2.25;1.00;;;;;;;20.62;46.42;96171.38;10323475;28;20383;-73
2023/03/27 09:48:04;;;;;;;2.22;1.02;;;;;;;20.63;46.44;96195.38;10310344;28;20050;-73
2023/03/27 09:53:34;;;;;;;1.95;1.20;;;;;;;20.65;46.30;96208.59;10324383;28;20042;-73
2023/03/27 09:59:31;;;;;;;1.70;1.10;;;;;;;20.65;46.72;96208.59;10351149;28;20054;-73
2023/03/27 10:04:59;;;;;;;1.70;1.30;;;;;;;20.65;46.69;96219.41;10323719;28;20384;-73
2023/03/27 10:10:26;;;;;;;1.15;0.88;;;;;;;20.66;46.59;96216.38;10336841;28;20375;-73
2023/03/27 10:16:00;;;;;;;1.30;0.80;;;;;;;20.68;46.67;96235.75;10337367;28;20046;-73
2023/03/27 10:21:37;;;;;;;3.22;1.00;;;;;;;20.68;46.89;96246.56;10321993;28;20049;-73
2023/03/27 10:27:06;;;;;;;1.55;0.82;;;;;;;20.68;46.80;96262.00;10308342;28;20054;-73
2023/03/27 10:32:44;;;;;;;1.67;0.98;;;;;;;20.68;46.96;96260.09;10321801;28;20065;-73
2023/03/27 10:38:24;;;;;;;1.27;1.00;;;;;;;20.70;46.67;96265.97;10337936;28;20046;-73
2023/03/27 10:43:58;;;;;;;1.83;1.00;;;;;;;20.69;46.76;96275.19;10323114;28;20038;-73
2023/03/27 10:49:37;;;;;;;1.75;1.00;;;;;;;20.70;46.46;96281.41;10320888;28;20048;-73
2023/03/27 10:55:13;;;;;;;2.22;1.05;;;;;;;20.70;46.74;96293.03;10320862;28;20050;-73
2023/03/27 11:00:37;;;;;;;1.20;0.80;;;;;;;20.71;46.63;96305.41;10320344;28;20043;-73
2023/03/27 11:05:59;;;;;;;0.93;0.80;;;;;;;20.71;46.67;96307.34;10320485;28;20046;-73
2023/03/27 11:11:40;;;;;;;1.30;0.85;;;;;;;20.70;46.71;96322.03;10335100;28;20042;-73
2023/03/27 11:17:02;;;;;;;0.82;0.80;;;;;;;20.71;46.82;96334.41;10333334;28;20050;-73
2023/03/27 11:22:50;;;;;;;1.27;0.95;;;;;;;20.70;46.83;96339.03;10347844;28;20100;-73
2023/03/27 11:29:00;;;;;;;2.28;0.80;;;;;;;20.68;46.82;96338.59;10302386;28;20065;-73
2023/03/27 11:34:38;;;;;;;1.00;0.90;;;;;;;20.69;46.93;96342.88;10295784;28;20359;-73
2023/03/27 11:40:37;;;;;;;1.38;0.77;;;;;;;20.69;47.09;96359.09;10280120;28;20077;-75
2023/03/27 11:46:32;;;;;;;0.95;0.85;;;;;;;20.69;46.92;96361.81;10333143;28;20045;-72
2023/03/27 11:52:01;;;;;;;0.70;0.63;;;;;;;20.67;46.54;96369.50;10332860;28;20046;-73
2023/03/27 11:57:24;;;;;;;1.60;0.75;;;;;;;20.67;46.72;96391.13;10332553;28;20070;-72
2023/03/27 12:03:01;;;;;;;1.35;0.75;;;;;;;20.66;46.69;96384.16;10332351;28;20046;-73
2023/03/27 12:08:40;;;;;;;1.02;0.60;;;;;;;20.65;46.81;96377.16;10332084;28;20042;-73
2023/03/27 12:14:13;;;;;;;1.10;0.97;;;;;;;20.67;46.82;96379.53;10305183;28;20502;-73
2023/03/27 12:20:04;;;;;;;1.23;1.10;;;;;;;20.66;46.75;96373.34;10331837;28;20073;-73
2023/03/27 12:25:30;;;;;;;2.25;0.70;;;;;;;20.65;46.91;96368.25;10318371;28;20419;-73
2023/03/27 12:31:31;;;;;;;1.25;0.63;;;;;;;20.64;46.86;96364.78;10346268;28;20077;-73
2023/03/27 12:36:52;;;;;;;1.13;0.80;;;;;;;20.63;46.84;96384.06;10331830;28;20054;-73
2023/03/27 12:42:23;;;;;;;1.17;0.60;;;;;;;20.63;46.92;96394.88;10321076;28;20053;-73
2023/03/27 12:48:02;;;;;;;0.93;0.60;;;;;;;20.61;46.95;96392.50;10325994;28;20061;-73
2023/03/27 12:53:29;;;;;;;1.40;0.88;;;;;;;20.61;47.12;96386.31;10339501;28;20042;-73
2023/03/27 12:59:13;;;;;;;0.73;0.60;;;;;;;20.60;47.08;96396.34;10339238;28;20411;-73
2023/03/27 13:04:57;;;;;;;0.75;0.75;;;;;;;20.60;46.94;96390.13;10325808;28;20049;-73
2023/03/27 13:10:20;;;;;;;0.77;0.60;;;;;;;20.59;47.13;96392.06;10353420;28;20042;-72
2023/03/27 13:15:53;;;;;;;0.88;0.70;;;;;;;20.60;46.84;96400.97;10338741;28;20042;-73
2023/03/27 13:21:30;;;;;;;0.65;0.65;;;;;;;20.59;46.70;96410.19;10338508;28;20053;-72
2023/03/27 13:27:27;;;;;;;0.52;0.50;;;;;;;20.58;46.93;96409.41;10334566;28;20407;-72
2023/03/27 13:33:15;;;;;;;6.28;3.53;;;;;;;20.58;46.68;96409.41;10234300;28;20073;-72
2023/03/27 13:38:48;;;;;;;2.33;0.90;;;;;;;20.58;47.41;96403.19;10324197;28;20042;-72
2023/03/27 13:44:27;;;;;;;2.25;1.15;;;;;;;20.57;48.00;96413.22;10338038;28;20293;-76
2023/03/27 13:50:13;;;;;;;2.33;2.13;;;;;;;20.57;48.56;96410.53;10337421;28;20046;-76
2023/03/27 13:55:47;;;;;;;1.42;0.80;;;;;;;20.58;50.54;96424.84;10322298;28;20046;-76
2023/03/27 14:01:44;;;;;;;1.15;0.80;;;;;;;20.58;49.63;96433.78;10279607;28;20046;-76
2023/03/27 14:07:45;;;;;;;2.15;0.90;;;;;;;20.57;49.62;96434.88;10323713;28;20042;-76
2023/03/27 14:13:37;;;;;;;1.60;0.60;;;;;;;20.57;49.23;96447.63;10336760;28;20042;-76
2023/03/27 14:19:00;;;;;;;1.13;0.60;;;;;;;20.54;49.27;96438.25;10323020;28;20108;-76
2023/03/27 14:24:44;;;;;;;1.10;0.65;;;;;;;20.55;49.16;96434.44;10323109;28;20463;-76
2023/03/27 14:30:22;;;;;;;0.80;0.60;;;;;;;20.52;49.08;96437.81;10311620;28;20050;-76
2023/03/27 14:35:56;;;;;;;2.15;0.70;;;;;;;20.52;49.13;96438.63;10323694;28;20042;-76
2023/03/27 14:41:22;;;;;;;1.25;0.98;;;;;;;20.48;44.08;96453.97;10322227;28;20384;-75
2023/03/27 14:46:47;;;;;;;2.22;0.57;;;;;;;20.47;47.60;96463.19;10322324;28;20042;-75
2023/03/27 14:52:07;;;;;;;1.08;0.70;;;;;;;20.48;47.95;96469.38;10349923;28;20399;-75
2023/03/27 14:57:50;;;;;;;0.80;0.70;;;;;;;20.48;48.15;96486.44;10326330;28;20042;-75
2023/03/27 15:03:19;;;;;;;2.25;0.70;;;;;;;20.47;48.68;96487.53;10334769;28;20162;-75
2023/03/27 15:08:45;;;;;;;2.88;0.50;;;;;;;20.49;49.53;96506.94;10322052;28;20045;-77
2023/03/27 15:14:26;;;;;;;1.50;0.75;;;;;;;20.50;49.09;96505.00;10326202;28;20042;-76
2023/03/27 15:20:03;;;;;;;2.08;0.70;;;;;;;20.51;48.86;96504.69;10320575;28;20042;-75
2023/03/27 15:25:53;;;;;;;1.77;0.75;;;;;;;20.51;49.14;96503.91;10333878;28;20042;-75
2023/03/27 15:31:13;;;;;;;2.25;0.60;;;;;;;20.51;49.39;96523.63;10253402;28;20043;-75
2023/03/27 15:36:34;;;;;;;1.20;0.50;;;;;;;20.50;49.12;96526.66;10267288;28;20043;-75
2023/03/27 15:42:02;;;;;;;1.85;0.60;;;;;;;20.51;49.19;96528.25;10267617;28;20122;-76
2023/03/27 15:47:27;;;;;;;1.55;0.55;;;;;;;20.49;49.30;96531.28;10267643;28;20039;-75
2023/03/27 15:52:49;;;;;;;0.55;0.50;;;;;;;20.50;49.34;96549.13;10253494;28;20071;-76
2023/03/27 15:58:20;;;;;;;0.77;0.50;;;;;;;20.50;49.21;96548.31;10267673;28;20055;-76
2023/03/27 16:03:40;;;;;;;2.13;0.70;;;;;;;20.50;49.12;96564.53;10266292;28;20058;-76
2023/03/27 16:09:04;;;;;;;0.60;0.50;;;;;;;20.51;49.00;96582.38;10265792;28;20043;-76
2023/03/27 16:14:40;;;;;;;1.88;0.52;;;;;;;20.49;49.06;96593.53;10266702;28;20498;-75
2023/03/27 16:20:11;;;;;;;1.15;0.82;;;;;;;20.48;48.99;96610.09;10252302;28;20110;-76
2023/03/27 16:25:31;;;;;;;0.98;0.65;;;;;;;20.47;49.15;96606.59;10265723;28;20062;-75
2023/03/27 16:30:51;;;;;;;2.22;0.60;;;;;;;20.47;49.18;96617.41;10265212;28;20048;-76
2023/03/27 16:36:12;;;;;;;2.10;0.65;;;;;;;20.45;49.31;96625.09;10265748;29;20058;-74
2023/03/27 16:41:31;;;;;;;1.00;0.60;;;;;;;20.44;49.42;96636.25;10252100;29;20047;-76
2023/03/27 16:46:51;;;;;;;0.60;0.60;;;;;;;20.44;49.00;96647.06;10265011;28;20047;-76
2023/03/27 16:52:10;;;;;;;0.80;0.50;;;;;;;20.42;48.96;96646.59;10265044;29;20047;-76
2023/03/27 16:57:30;;;;;;;1.23;0.73;;;;;;;20.41;48.95;96659.34;10265162;28;20039;-76
2023/03/27 17:02:49;;;;;;;1.55;0.70;;;;;;;20.39;48.61;96677.84;10252258;28;20040;-76
2023/03/27 17:08:11;;;;;;;0.50;0.47;;;;;;;20.39;48.50;96687.88;10251409;29;20452;-75
2023/03/27 17:13:31;;;;;;;0.45;0.38;;;;;;;20.37;48.51;96707.13;10265759;28;20071;-75
2023/03/27 17:18:52;;;;;;;0.60;0.60;;;;;;;20.36;48.09;96702.84;10251687;29;20472;-76
2023/03/27 17:24:13;;;;;;;2.13;0.70;;;;;;;20.35;48.03;96726.41;10251701;28;20043;-76
2023/03/27 17:29:33;;;;;;;0.90;0.70;;;;;;;20.34;48.25;96737.53;10290328;28;20519;-76
2023/03/27 17:34:52;;;;;;;1.20;0.60;;;;;;;20.34;48.48;96748.38;10312447;28;20046;-76
2023/03/27 17:40:13;;;;;;;0.98;0.60;;;;;;;20.33;47.44;96747.59;10298006;28;20049;-76
2023/03/27 17:45:32;;;;;;;1.23;1.02;;;;;;;20.13;41.83;96740.25;10311217;28;20046;-75
2023/03/27 17:50:52;;;;;;;1.52;0.80;;;;;;;20.15;46.26;96746.13;10310751;28;20059;-75
2023/03/27 17:56:11;;;;;;;1.10;0.90;;;;;;;20.18;46.55;96748.16;10310556;28;20043;-75
2023/03/27 18:01:31;;;;;;;0.85;0.75;;;;;;;20.20;46.57;96754.03;10296791;28;20062;-75
2023/03/27 18:06:51;;;;;;;1.58;0.80;;;;;;;20.20;46.55;96755.97;10283105;28;20055;-75
2023/03/27 18:12:12;;;;;;;1.17;0.70;;;;;;;20.20;46.58;96759.44;10309905;28;20054;-75
2023/03/27 18:17:33;;;;;;;2.55;0.73;;;;;;;20.20;46.69;96761.38;10309799;28;20046;-75
2023/03/27 18:22:52;;;;;;;1.45;0.90;;;;;;;20.20;46.79;96777.59;10309579;28;20065;-75
2023/03/27 18:28:12;;;;;;;1.55;0.73;;;;;;;20.19;46.55;96776.81;10324215;28;20054;-76
2023/03/27 18:33:32;;;;;;;2.10;0.52;;;;;;;20.17;47.16;96779.06;10322226;28;20038;-75
2023/03/27 18:38:51;;;;;;;2.53;0.90;;;;;;;20.16;47.14;96788.28;10335070;28;20050;-76
2023/03/27 18:44:11;;;;;;;1.35;0.75;;;;;;;20.16;47.52;96799.09;10308236;28;20097;-76
2023/03/27 18:49:31;;;;;;;1.40;0.60;;;;;;;20.17;48.24;96808.00;10308660;28;20112;-76
2023/03/27 18:54:50;;;;;;;1.70;0.60;;;;;;;20.15;48.09;96805.63;10335053;28;20070;-76
2023/03/27 19:00:17;;;;;;;3.08;0.90;;;;;;;20.14;47.91;96817.56;10335092;28;20046;-76
2023/03/27 19:05:36;;;;;;;2.05;0.70;;;;;;;20.11;47.92;96801.97;10335577;28;20042;-76
2023/03/27 19:10:56;;;;;;;1.70;0.75;;;;;;;20.11;48.11;96804.69;10334332;28;20403;-76
2023/03/27 19:16:35;;;;;;;2.38;0.68;;;;;;;20.11;48.13;96815.50;10335531;28;20056;-76
2023/03/27 19:22:05;;;;;;;2.00;0.90;;;;;;;20.09;48.09;96823.16;10335065;28;20053;-76
2023/03/27 19:27:48;;;;;;;1.48;0.75;;;;;;;20.09;48.11;96823.16;10313045;28;20507;-76
2023/03/27 19:33:08;;;;;;;1.88;0.60;;;;;;;20.08;48.11;96816.16;10333626;28;20097;-76
2023/03/27 19:38:28;;;;;;;2.10;0.70;;;;;;;20.06;48.11;96816.50;10319702;28;20046;-76
2023/03/27 19:43:48;;;;;;;1.40;0.70;;;;;;;20.05;48.25;96811.41;10320305;28;20466;-76
2023/03/27 19:49:07;;;;;;;1.33;0.70;;;;;;;20.04;48.29;96821.44;10305760;28;20043;-76
2023/03/27 19:54:40;;;;;;;1.05;0.60;;;;;;;20.03;48.38;96821.75;10320265;28;20475;-76
2023/03/27 20:00:00;;;;;;;2.38;1.02;;;;;;;20.02;48.26;96826.38;10332756;28;20109;-76
2023/03/27 20:05:20;;;;;;;1.95;0.65;;;;;;;20.01;48.42;96821.28;10347365;28;20042;-75
2023/03/27 20:10:42;;;;;;;2.50;0.70;;;;;;;19.99;48.36;96823.53;10332552;28;20053;-76
2023/03/27 20:16:03;;;;;;;1.23;0.75;;;;;;;20.00;48.41;96822.44;10319831;28;20054;-76
2023/03/27 20:21:24;;;;;;;1.65;0.70;;;;;;;19.98;48.24;96811.94;10332048;28;20046;-76
2023/03/27 20:26:46;;;;;;;1.67;0.90;;;;;;;19.97;48.25;96813.03;10328602;28;20050;-76
2023/03/27 20:32:09;;;;;;;0.93;0.60;;;;;;;19.95;48.40;96813.38;10305636;28;20042;-76
2023/03/27 20:37:30;;;;;;;1.85;0.80;;;;;;;19.95;48.36;96810.69;10318213;28;20046;-76
2023/03/27 20:43:16;;;;;;;1.90;0.80;;;;;;;19.93;48.26;96812.91;10335380;28;20066;-75
2023/03/27 20:48:43;;;;;;;1.48;0.80;;;;;;;19.92;48.33;96811.31;10346068;28;20042;-76
2023/03/27 20:54:04;;;;;;;1.67;0.95;;;;;;;19.91;48.52;96807.00;10346073;28;20038;-76
2023/03/27 20:59:24;;;;;;;1.73;0.82;;;;;;;19.91;48.77;96811.63;10317992;28;20517;-76
2023/03/27 21:04:45;;;;;;;1.70;1.00;;;;;;;19.89;48.51;96808.47;10309644;28;20049;-76
2023/03/27 21:10:06;;;;;;;5.55;1.50;;;;;;;19.88;48.56;96807.69;10326329;28;20069;-76
2023/03/27 21:15:26;;;;;;;4.57;1.50;;;;;;;19.87;48.57;96808.78;10353439;28;20039;-76
2023/03/27 21:20:46;;;;;;;3.75;1.55;;;;;;;19.88;48.69;96815.78;10338328;28;20097;-76
2023/03/27 21:26:06;;;;;;;3.88;1.30;;;;;;;19.86;48.90;96804.50;10324926;28;20077;-76
2023/03/27 21:31:26;;;;;;;3.67;1.50;;;;;;;19.85;48.83;96804.84;10338038;28;20101;-77
2023/03/27 21:36:47;;;;;;;5.72;1.40;;;;;;;19.83;48.85;96821.38;10298063;28;20065;-77
2023/03/27 21:42:07;;;;;;;5.35;1.42;;;;;;;19.83;48.88;96823.28;10295168;28;20054;-76
2023/03/27 21:47:27;;;;;;;3.15;1.20;;;;;;;19.81;48.76;96823.59;10337809;28;20042;-77
2023/03/27 21:52:47;;;;;;;2.53;1.02;;;;;;;19.80;48.64;96824.75;10323647;28;20050;-77
2023/03/27 21:58:06;;;;;;;3.13;1.30;;;;;;;19.78;48.54;96826.97;10337248;28;20113;-76
2023/03/27 22:03:27;;;;;;;1.90;1.05;;;;;;;19.78;48.69;96820.75;10336938;28;20050;-77
2023/03/27 22:08:46;;;;;;;2.33;1.00;;;;;;;19.76;48.46;96823.81;10336795;28;20038;-76
2023/03/27 22:14:06;;;;;;;2.15;1.08;;;;;;;19.75;48.52;96830.31;10335516;28;20495;-76
2023/03/27 22:19:26;;;;;;;2.38;1.00;;;;;;;19.73;48.42;96829.84;10351196;28;20046;-77
2023/03/27 22:24:45;;;;;;;2.55;1.00;;;;;;;19.72;48.41;96829.06;10351009;28;20042;-77
2023/03/27 22:30:05;;;;;;;2.88;0.88;;;;;;;19.72;48.26;96833.69;10308813;28;20450;-77
2023/03/27 22:35:25;;;;;;;2.47;1.17;;;;;;;19.70;48.22;96835.88;10335895;28;20045;-76
2023/03/27 22:40:44;;;;;;;2.25;0.85;;;;;;;19.70;48.15;96830.47;10336245;28;20055;-76
2023/03/27 22:46:06;;;;;;;2.38;1.20;;;;;;;19.69;48.16;96842.41;10335452;28;20483;-77
2023/03/27 22:51:29;;;;;;;2.42;1.08;;;;;;;19.68;48.08;96843.50;10321688;28;20045;-76
2023/03/27 22:56:49;;;;;;;1.52;0.93;;;;;;;19.66;48.06;96834.94;10335546;28;20042;-76
2023/03/27 23:02:09;;;;;;;1.25;0.80;;;;;;;19.64;47.97;96847.97;10321245;28;20050;-76
2023/03/27 23:07:30;;;;;;;1.73;0.93;;;;;;;19.63;47.89;96855.28;10349214;28;20053;-76
2023/03/27 23:12:50;;;;;;;1.40;0.80;;;;;;;19.63;47.93;96857.22;10334190;28;20038;-76
2023/03/27 23:18:09;;;;;;;1.92;0.88;;;;;;;19.62;47.80;96861.00;10334043;28;20050;-76
2023/03/27 23:23:29;;;;;;;1.85;1.00;;;;;;;19.60;47.74;96857.84;10333864;28;20400;-76
2023/03/27 23:28:49;;;;;;;1.85;0.90;;;;;;;19.59;47.77;96872.47;10324486;28;20046;-76
2023/03/27 23:34:09;;;;;;;2.70;0.95;;;;;;;19.58;47.82;96873.59;10333686;28;20042;-76
2023/03/27 23:39:29;;;;;;;1.88;0.80;;;;;;;19.55;47.69;96873.13;10334436;28;20066;-76
2023/03/27 23:44:49;;;;;;;0.82;0.70;;;;;;;19.55;47.69;96869.63;10319851;28;20043;-76
2023/03/27 23:50:09;;;;;;;1.85;0.90;;;;;;;19.54;47.73;96876.13;10319556;28;20446;-76
2023/03/27 23:55:29;;;;;;;1.00;0.80;;;;;;;19.52;47.79;96868.38;10332918;28;20053;-76
